Time;durP1;ratioP1;P1;durP2;ratioP2;P2;SDS_P1;SDS_P2;PMS_P1;PMS_P2;Temp;Humidity;BMP_temperature;BMP_pressure;BME280_temperature;BME280_humidity;BME280_pressure;Samples;Min_cycle;Max_cycle;Signal;HPM_P1;HPM_P2
2022/07/28 00:00:59;;;;;;;8.93;5.60;;;24.70;99.90;;;;;;5072704;28;20502;-76
2022/07/28 00:04:03;;;;;;;7.82;5.50;;;24.50;99.90;;;;;;5071716;28;20039;-76
2022/07/28 00:07:06;;;;;;;9.40;5.82;;;24.40;99.90;;;;;;5072405;28;20387;-76
2022/07/28 00:10:11;;;;;;;10.77;5.13;;;24.40;99.90;;;;;;5073080;28;20043;-76
2022/07/28 00:13:14;;;;;;;10.75;5.95;;;24.20;99.90;;;;;;5072133;28;20035;-76
2022/07/28 00:16:18;;;;;;;12.40;5.53;;;24.20;99.90;;;;;;5060412;28;20051;-75
2022/07/28 00:19:23;;;;;;;8.13;5.40;;;24.20;99.90;;;;;;5072611;28;20052;-75
2022/07/28 00:22:27;;;;;;;9.73;4.88;;;24.20;99.90;;;;;;5072754;28;20044;-75
2022/07/28 00:25:31;;;;;;;10.23;5.00;;;24.20;99.90;;;;;;5072265;28;20052;-75
2022/07/28 00:28:36;;;;;;;10.00;4.97;;;24.30;99.90;;;;;;5072222;28;20052;-75
2022/07/28 00:31:40;;;;;;;8.45;5.50;;;24.30;99.90;;;;;;5072236;28;20047;-75
2022/07/28 00:34:45;;;;;;;7.43;4.80;;;24.40;99.90;;;;;;5071991;28;20044;-76
2022/07/28 00:37:49;;;;;;;11.05;4.82;;;24.40;99.90;;;;;;5072175;28;20048;-76
2022/07/28 00:41:11;;;;;;;8.60;5.32;;;24.40;99.90;;;;;;5072236;28;20387;-76
2022/07/28 00:44:15;;;;;;;;;;;24.40;99.90;;;;;;5072451;28;20043;-76
2022/07/28 00:47:19;;;;;;;11.48;6.25;;;24.40;99.90;;;;;;5071840;28;19908;-75
2022/07/28 00:50:23;;;;;;;9.98;5.68;;;24.30;99.90;;;;;;5071449;28;20410;-76
2022/07/28 00:53:28;;;;;;;12.02;5.90;;;24.30;99.90;;;;;;5071324;28;20036;-76
2022/07/28 00:56:33;;;;;;;11.85;5.65;;;24.20;99.90;;;;;;5071630;28;20044;-76
2022/07/28 00:59:36;;;;;;;10.10;5.82;;;24.10;99.90;;;;;;5071672;28;20051;-76
2022/07/28 01:02:41;;;;;;;12.00;5.95;;;23.90;99.90;;;;;;5070695;28;20047;-76
2022/07/28 01:06:05;;;;;;;10.70;6.30;;;23.90;99.90;;;;;;5071668;28;20048;-76
2022/07/28 01:09:15;;;;;;;18.65;6.70;;;23.80;99.90;;;;;;5071220;28;20039;-76
2022/07/28 01:12:43;;;;;;;10.70;6.40;;;23.70;99.90;;;;;;5071473;28;20059;-76
2022/07/28 01:16:16;;;;;;;12.25;6.75;;;23.70;99.90;;;;;;5058706;28;20467;-76
2022/07/28 01:19:39;;;;;;;10.65;6.95;;;23.50;99.90;;;;;;5071204;28;20055;-75
2022/07/28 01:23:18;;;;;;;10.80;6.47;;;23.50;99.90;;;;;;5070294;28;20051;-76
2022/07/28 01:26:36;;;;;;;13.85;6.55;;;23.40;99.90;;;;;;5071446;28;20043;-76
2022/07/28 01:29:49;;;;;;;13.07;6.20;;;23.40;99.90;;;;;;5070975;28;20047;-76
2022/07/28 01:33:17;;;;;;;9.27;6.10;;;23.40;99.90;;;;;;5071032;28;20059;-75
2022/07/28 01:36:30;;;;;;;11.80;6.38;;;23.40;99.90;;;;;;5070783;28;20044;-76
2022/07/28 01:39:36;;;;;;;11.77;5.80;;;23.40;99.90;;;;;;5071096;28;20040;-76
2022/07/28 01:42:45;;;;;;;14.75;6.03;;;23.30;99.90;;;;;;5070986;28;20047;-75
2022/07/28 01:45:50;;;;;;;9.07;6.20;;;23.20;99.90;;;;;;5070803;28;20040;-75
2022/07/28 01:48:56;;;;;;;12.43;6.72;;;23.20;99.90;;;;;;5070579;28;20403;-75
2022/07/28 01:52:04;;;;;;;10.40;6.85;;;23.20;99.90;;;;;;5070644;28;20493;-76
2022/07/28 01:55:10;;;;;;;13.65;6.40;;;23.20;99.90;;;;;;5070101;28;20880;-75
2022/07/28 01:58:17;;;;;;;12.02;7.13;;;23.20;99.90;;;;;;5070853;28;20044;-75
2022/07/28 02:01:24;;;;;;;9.90;6.88;;;23.20;99.90;;;;;;5070909;28;20055;-76
2022/07/28 02:04:29;;;;;;;8.82;6.30;;;23.20;99.90;;;;;;5070859;28;20064;-76
2022/07/28 02:07:34;;;;;;;14.00;6.72;;;23.20;99.90;;;;;;5070732;28;20052;-76
2022/07/28 02:10:42;;;;;;;14.07;7.10;;;23.20;99.90;;;;;;5070594;28;20051;-76
2022/07/28 02:13:49;;;;;;;13.93;6.28;;;23.20;99.90;;;;;;5070463;28;20047;-76
2022/07/28 02:17:06;;;;;;;7.68;5.93;;;23.10;99.90;;;;;;5070634;28;20036;-76
2022/07/28 02:20:12;;;;;;;9.60;6.88;;;23.10;99.90;;;;;;5070278;28;20047;-76
2022/07/28 02:23:18;;;;;;;9.70;7.25;;;23.10;99.90;;;;;;5070225;28;20040;-76
2022/07/28 02:26:27;;;;;;;12.68;6.82;;;23.20;99.90;;;;;;5070525;28;20047;-76
2022/07/28 02:29:40;;;;;;;13.07;7.03;;;23.20;99.90;;;;;;5069992;28;20051;-76
2022/07/28 02:32:48;;;;;;;13.25;6.35;;;23.20;99.90;;;;;;5070467;28;20047;-76
2022/07/28 02:36:04;;;;;;;10.68;6.68;;;23.20;99.90;;;;;;5073165;28;20048;-75
2022/07/28 02:39:16;;;;;;;9.20;6.57;;;23.10;99.90;;;;;;5074226;28;20399;-75
2022/07/28 02:42:25;;;;;;;;;;;23.00;99.90;;;;;;5062435;28;20052;-76
2022/07/28 02:45:32;;;;;;;13.48;7.45;;;22.90;99.90;;;;;;5074199;28;20275;-76
2022/07/28 02:48:38;;;;;;;13.75;6.85;;;22.90;99.90;;;;;;5074112;28;20050;-76
2022/07/28 02:51:44;;;;;;;12.70;6.88;;;23.00;99.90;;;;;;5074349;28;20506;-75
2022/07/28 02:54:49;;;;;;;11.00;7.13;;;22.90;99.90;;;;;;5073337;28;20043;-76
2022/07/28 02:57:54;;;;;;;12.82;7.55;;;22.90;99.90;;;;;;5074238;28;20040;-76
2022/07/28 03:01:01;;;;;;;11.48;7.90;;;22.90;99.90;;;;;;5073836;28;20059;-76
2022/07/28 03:04:06;;;;;;;10.52;6.68;;;23.00;99.90;;;;;;5073564;28;20047;-75
2022/07/28 03:07:10;;;;;;;9.45;6.75;;;22.90;99.90;;;;;;5072886;28;20040;-76
2022/07/28 03:10:19;;;;;;;11.63;7.00;;;22.90;99.90;;;;;;5073311;28;20506;-76
2022/07/28 03:13:23;;;;;;;16.38;7.05;;;22.90;99.90;;;;;;5073499;28;20079;-76
2022/07/28 03:16:28;;;;;;;16.33;7.43;;;22.90;99.90;;;;;;5073648;28;20055;-75
2022/07/28 03:19:32;;;;;;;13.15;8.18;;;22.80;99.90;;;;;;5073501;28;20047;-75
2022/07/28 03:22:36;;;;;;;14.65;7.05;;;22.80;99.90;;;;;;5073876;28;20047;-75
2022/07/28 03:25:42;;;;;;;10.30;7.50;;;22.70;99.90;;;;;;5073508;28;20040;-75
2022/07/28 03:28:47;;;;;;;13.25;8.82;;;22.70;99.90;;;;;;5073587;28;20079;-76
2022/07/28 03:31:55;;;;;;;10.85;8.98;;;22.60;99.90;;;;;;5073828;28;20051;-76
2022/07/28 03:35:00;;;;;;;15.38;7.78;;;22.50;99.90;;;;;;5072819;28;20083;-76
2022/07/28 03:38:17;;;;;;;16.05;9.15;;;22.50;99.90;;;;;;5073402;28;20043;-76
2022/07/28 03:41:24;;;;;;;10.98;6.57;;;22.50;99.90;;;;;;5073196;28;20040;-76
2022/07/28 03:44:28;;;;;;;10.82;6.53;;;22.20;99.90;;;;;;5072731;28;20056;-76
2022/07/28 03:47:32;;;;;;;11.80;6.32;;;21.90;99.90;;;;;;5073486;28;20048;-76
2022/07/28 03:50:36;;;;;;;11.90;6.22;;;21.70;99.90;;;;;;5072930;28;20506;-76
2022/07/28 03:53:41;;;;;;;11.00;6.93;;;21.60;99.90;;;;;;5072589;28;20067;-76
2022/07/28 03:56:45;;;;;;;11.38;6.63;;;21.50;99.90;;;;;;5073297;28;20485;-76
2022/07/28 03:59:49;;;;;;;11.30;7.10;;;21.50;99.90;;;;;;5072952;28;20457;-76
2022/07/28 04:02:53;;;;;;;12.90;6.38;;;21.50;99.90;;;;;;5072967;28;20038;-76
2022/07/28 04:05:57;;;;;;;14.25;6.60;;;21.50;99.90;;;;;;5072662;28;20048;-76
2022/07/28 04:09:00;;;;;;;17.85;7.50;;;21.50;99.90;;;;;;5072834;28;20059;-75
2022/07/28 04:12:05;;;;;;;12.73;7.28;;;21.50;99.90;;;;;;5073033;28;20047;-75
2022/07/28 04:15:15;;;;;;;11.73;6.97;;;21.50;99.90;;;;;;5072786;28;20052;-76
2022/07/28 04:18:19;;;;;;;15.98;7.18;;;21.50;99.90;;;;;;5072568;28;20510;-76
2022/07/28 04:21:24;;;;;;;9.40;6.68;;;21.60;99.90;;;;;;5072017;28;20055;-75
2022/07/28 04:24:28;;;;;;;12.63;7.13;;;21.60;99.90;;;;;;5072683;28;20502;-75
2022/07/28 04:27:35;;;;;;;10.18;6.93;;;21.70;99.90;;;;;;5072789;28;20375;-75
2022/07/28 04:30:38;;;;;;;17.80;6.70;;;21.70;99.90;;;;;;5072357;28;20063;-75
2022/07/28 04:33:42;;;;;;;13.00;7.07;;;21.70;99.90;;;;;;5072012;28;20051;-75
2022/07/28 04:36:46;;;;;;;12.50;6.65;;;21.80;99.90;;;;;;5072357;28;20047;-75
2022/07/28 04:39:51;;;;;;;15.27;7.95;;;21.90;99.90;;;;;;5072753;28;20051;-75
2022/07/28 04:42:55;;;;;;;29.25;7.97;;;21.90;99.90;;;;;;5072842;28;20051;-76
2022/07/28 04:45:58;;;;;;;14.48;7.25;;;22.00;99.90;;;;;;5072615;28;20055;-75
2022/07/28 04:49:03;;;;;;;14.52;7.57;;;22.00;99.90;;;;;;5072833;28;20055;-76
2022/07/28 04:52:07;;;;;;;18.33;8.00;;;22.10;99.90;;;;;;5072504;28;20055;-76
2022/07/28 04:55:11;;;;;;;10.30;7.03;;;22.70;99.90;;;;;;5071450;28;20494;-76
2022/07/28 04:58:17;;;;;;;13.48;7.85;;;24.90;99.90;;;;;;5071304;28;20056;-76
2022/07/28 05:01:22;;;;;;;11.52;6.25;;;26.80;99.90;;;;;;5071445;28;20047;-76
2022/07/28 05:04:26;;;;;;;14.25;6.68;;;28.70;99.90;;;;;;5071150;28;20051;-76
2022/07/28 05:07:31;;;;;;;12.23;7.00;;;29.30;99.90;;;;;;5071175;28;20043;-76
2022/07/28 05:10:35;;;;;;;8.45;5.38;;;30.00;99.90;;;;;;5071119;28;20048;-76
2022/07/28 05:13:39;;;;;;;14.55;6.28;;;30.90;99.90;;;;;;5071189;28;20039;-76
2022/07/28 05:16:43;;;;;;;12.55;6.90;;;31.90;99.90;;;;;;5058932;28;20044;-76
2022/07/28 05:19:47;;;;;;;13.27;6.63;;;32.10;99.50;;;;;;5071466;28;20047;-76
2022/07/28 05:22:56;;;;;;;15.45;6.03;;;32.70;98.20;;;;;;5071238;28;20051;-76
2022/07/28 05:26:00;;;;;;;18.30;6.97;;;32.30;97.90;;;;;;5071110;28;20048;-76
2022/07/28 05:29:04;;;;;;;11.02;6.38;;;32.70;97.40;;;;;;5070787;28;20533;-77
2022/07/28 05:32:09;;;;;;;12.80;6.20;;;33.60;96.30;;;;;;5070980;28;20063;-76
2022/07/28 05:35:13;;;;;;;12.23;6.13;;;34.20;95.40;;;;;;5070322;28;20044;-76
2022/07/28 05:38:16;;;;;;;8.10;5.60;;;34.80;94.10;;;;;;5070945;28;20047;-77
2022/07/28 05:41:20;;;;;;;12.65;5.88;;;34.90;93.30;;;;;;5070827;28;20052;-77
2022/07/28 05:44:25;;;;;;;8.13;5.63;;;35.10;92.70;;;;;;5070569;28;20036;-76
2022/07/28 05:47:28;;;;;;;10.77;5.57;;;35.20;91.70;;;;;;5070835;28;20059;-77
2022/07/28 05:50:33;;;;;;;11.98;6.00;;;34.30;91.80;;;;;;5070478;28;20047;-77
2022/07/28 05:53:37;;;;;;;6.88;5.20;;;34.10;92.10;;;;;;5070858;28;20047;-77
2022/07/28 05:56:41;;;;;;;9.43;5.65;;;34.30;92.10;;;;;;5070900;28;20414;-77
2022/07/28 05:59:45;;;;;;;11.18;5.57;;;35.00;91.20;;;;;;5070892;28;20052;-76
2022/07/28 06:02:49;;;;;;;8.98;5.22;;;35.60;90.60;;;;;;5071164;28;20111;-74
2022/07/28 06:05:55;;;;;;;11.68;5.55;;;36.00;90.00;;;;;;5071385;28;20395;-76
2022/07/28 06:08:58;;;;;;;9.57;5.13;;;36.30;88.60;;;;;;5070051;28;20048;-76
2022/07/28 06:12:03;;;;;;;12.32;5.00;;;36.30;88.20;;;;;;5070830;28;20040;-77
2022/07/28 06:15:15;;;;;;;10.25;4.80;;;36.50;87.20;;;;;;5070767;28;20047;-77
2022/07/28 06:18:21;;;;;;;10.93;4.75;;;36.40;86.20;;;;;;5070546;28;20043;-77
2022/07/28 06:21:25;;;;;;;14.95;5.60;;;36.50;86.00;;;;;;5069466;28;20040;-77
2022/07/28 06:24:29;;;;;;;7.78;5.10;;;36.30;85.60;;;;;;5067965;28;20051;-77
2022/07/28 06:27:32;;;;;;;9.13;4.88;;;36.40;84.80;;;;;;5074134;28;20047;-77
2022/07/28 06:30:36;;;;;;;8.07;4.88;;;36.10;85.10;;;;;;5060931;28;20828;-77
2022/07/28 06:33:41;;;;;;;10.23;4.07;;;36.20;84.30;;;;;;5068931;28;20055;-76
2022/07/28 06:36:45;;;;;;;9.27;4.53;;;36.40;84.00;;;;;;5056459;28;20122;-77
2022/07/28 06:39:49;;;;;;;8.98;4.57;;;36.60;82.50;;;;;;5070711;28;20506;-77
2022/07/28 06:42:53;;;;;;;14.93;5.13;;;36.60;82.90;;;;;;5050773;28;20052;-77
2022/07/28 06:45:57;;;;;;;8.45;4.65;;;36.60;82.30;;;;;;5062344;28;20039;-77
2022/07/28 06:49:03;;;;;;;11.15;4.60;;;36.80;81.90;;;;;;5084677;28;20493;-77
2022/07/28 06:52:07;;;;;;;15.88;4.80;;;37.00;81.20;;;;;;5083055;28;20043;-77
2022/07/28 06:55:14;;;;;;;7.65;4.32;;;35.70;81.90;;;;;;5078294;28;20060;-75
2022/07/28 06:58:18;;;;;;;11.02;3.85;;;35.70;83.30;;;;;;5070850;28;20055;-76
2022/07/28 07:01:22;;;;;;;16.35;5.15;;;36.30;82.20;;;;;;5080644;28;20402;-76
2022/07/28 07:04:27;;;;;;;10.93;3.97;;;36.90;81.20;;;;;;5081482;28;20483;-77
2022/07/28 07:07:31;;;;;;;11.68;4.25;;;37.40;80.70;;;;;;5053391;28;20044;-77
2022/07/28 07:10:35;;;;;;;7.18;3.80;;;38.10;79.30;;;;;;5081029;28;20059;-77
2022/07/28 07:13:39;;;;;;;11.93;4.32;;;38.40;77.90;;;;;;5072570;28;20044;-75
2022/07/28 07:16:43;;;;;;;7.22;4.18;;;37.30;78.10;;;;;;5076596;28;20051;-77
2022/07/28 07:19:47;;;;;;;13.45;4.25;;;36.20;79.70;;;;;;5081889;28;20043;-78
2022/07/28 07:22:51;;;;;;;9.93;4.25;;;36.20;80.20;;;;;;5060313;28;20032;-77
2022/07/28 07:25:55;;;;;;;16.77;4.18;;;37.20;79.30;;;;;;5085158;28;20051;-77
2022/07/28 07:28:59;;;;;;;10.40;3.63;;;38.40;78.00;;;;;;5078767;28;20056;-77
2022/07/28 07:32:03;;;;;;;9.23;3.50;;;39.40;76.20;;;;;;5087982;28;20043;-77
2022/07/28 07:35:08;;;;;;;7.28;3.42;;;40.30;74.00;;;;;;5084183;28;20379;-76
2022/07/28 07:38:13;;;;;;;5.82;3.55;;;40.40;73.50;;;;;;5082906;28;20484;-75
2022/07/28 07:41:17;;;;;;;9.50;4.18;;;40.60;72.60;;;;;;5077293;28;20051;-75
2022/07/28 07:44:22;;;;;;;7.53;3.83;;;40.70;72.60;;;;;;5072464;28;20043;-76
2022/07/28 07:47:25;;;;;;;8.02;3.63;;;40.30;71.70;;;;;;5069045;28;20048;-77
2022/07/28 07:50:29;;;;;;;12.00;4.05;;;41.10;71.80;;;;;;5060837;28;20498;-74
2022/07/28 07:53:33;;;;;;;16.10;3.42;;;41.90;70.50;;;;;;5064614;28;20043;-77
2022/07/28 07:56:37;;;;;;;8.60;3.95;;;42.50;69.50;;;;;;5083466;28;20039;-77
2022/07/28 07:59:41;;;;;;;4.82;3.58;;;42.30;69.30;;;;;;5064618;28;20399;-76
2022/07/28 08:02:46;;;;;;;8.48;3.40;;;42.30;68.40;;;;;;5070884;28;20047;-76
2022/07/28 08:05:54;;;;;;;6.78;3.53;;;42.00;68.50;;;;;;5066322;28;20120;-74
2022/07/28 08:08:58;;;;;;;5.37;3.20;;;42.30;68.30;;;;;;5080020;28;20055;-76
2022/07/28 08:12:03;;;;;;;6.97;3.10;;;42.70;68.00;;;;;;5062592;28;20048;-76
2022/07/28 08:15:07;;;;;;;6.32;3.15;;;43.80;66.90;;;;;;5072657;28;20407;-77
2022/07/28 08:18:11;;;;;;;10.20;3.63;;;44.50;65.30;;;;;;5073142;28;20052;-77
2022/07/28 08:21:16;;;;;;;7.95;3.63;;;41.40;66.00;;;;;;5073098;28;20047;-76
2022/07/28 08:24:21;;;;;;;7.90;3.58;;;39.10;69.20;;;;;;5070960;28;20119;-76
2022/07/28 08:27:25;;;;;;;7.88;3.72;;;39.20;70.70;;;;;;5075734;28;20486;-76
2022/07/28 08:30:29;;;;;;;14.35;4.20;;;38.60;71.60;;;;;;5076739;28;20481;-75
2022/07/28 08:33:32;;;;;;;4.47;3.05;;;41.00;68.90;;;;;;5078435;28;20074;-76
2022/07/28 08:36:37;;;;;;;9.48;3.42;;;42.10;67.10;;;;;;5081754;28;20367;-75
2022/07/28 08:39:41;;;;;;;7.15;3.33;;;42.70;66.50;;;;;;5089904;28;20110;-76
2022/07/28 08:42:57;;;;;;;4.75;3.17;;;38.60;68.30;;;;;;5075758;28;20047;-76
2022/07/28 08:46:03;;;;;;;5.43;3.55;;;38.90;68.70;;;;;;5087102;28;20051;-76
2022/07/28 08:49:08;;;;;;;5.97;3.92;;;40.20;67.90;;;;;;5081585;28;20375;-75
2022/07/28 08:52:13;;;;;;;7.72;3.60;;;41.60;66.20;;;;;;5068215;28;20039;-75
2022/07/28 08:55:27;;;;;;;11.05;4.13;;;43.20;63.00;;;;;;5061163;28;20375;-74
2022/07/28 08:58:33;;;;;;;5.88;3.60;;;44.40;62.40;;;;;;5072329;28;20059;-75
2022/07/28 09:01:37;;;;;;;5.07;2.72;;;43.90;61.50;;;;;;5078209;28;20395;-75
2022/07/28 09:04:43;;;;;;;4.53;2.70;;;45.50;60.20;;;;;;5073591;28;20048;-75
2022/07/28 09:07:50;;;;;;;6.00;2.65;;;47.10;58.40;;;;;;5078529;28;20036;-76
2022/07/28 09:10:54;;;;;;;3.55;2.58;;;47.90;57.20;;;;;;5065611;28;20111;-75
2022/07/28 09:14:00;;;;;;;4.00;2.60;;;46.80;57.10;;;;;;5072692;28;20040;-73
2022/07/28 09:17:04;;;;;;;4.55;2.75;;;46.10;57.90;;;;;;5078465;28;20052;-76
2022/07/28 09:20:10;;;;;;;5.43;2.40;;;46.70;57.10;;;;;;5067874;28;20040;-76
2022/07/28 09:23:14;;;;;;;6.32;2.50;;;47.70;56.30;;;;;;5059633;28;20059;-76
2022/07/28 09:26:18;;;;;;;4.50;2.60;;;47.20;54.70;;;;;;5050931;28;20048;-76
2022/07/28 09:29:23;;;;;;;5.20;2.45;;;46.70;55.20;;;;;;5065660;28;20032;-76
2022/07/28 09:32:30;;;;;;;3.50;2.40;;;47.90;54.80;;;;;;5075241;28;20047;-76
2022/07/28 09:35:46;;;;;;;4.70;2.25;;;48.70;54.30;;;;;;5075379;28;20048;-76
2022/07/28 09:38:52;;;;;;;3.55;2.17;;;49.40;53.10;;;;;;5069951;28;20051;-76
2022/07/28 09:41:56;;;;;;;4.75;2.60;;;50.20;53.40;;;;;;5069147;28;20048;-77
2022/07/28 09:45:06;;;;;;;3.08;2.25;;;51.30;52.90;;;;;;5080359;28;20055;-74
2022/07/28 09:48:12;;;;;;;7.13;2.78;;;51.00;52.20;;;;;;5082259;28;20490;-75
2022/07/28 09:51:27;;;;;;;3.83;2.40;;;47.60;54.00;;;;;;5075012;28;20043;-76
2022/07/28 09:54:31;;;;;;;4.40;2.47;;;48.20;54.70;;;;;;5079775;28;20382;-76
2022/07/28 09:57:38;;;;;;;3.53;2.30;;;48.50;53.80;;;;;;5064958;28;20043;-76
2022/07/28 10:00:44;;;;;;;5.55;2.50;;;48.90;53.70;;;;;;5071492;28;20043;-76
2022/07/28 10:03:52;;;;;;;10.27;2.72;;;50.50;53.30;;;;;;5081935;28;20039;-76
2022/07/28 10:07:04;;;;;;;3.33;2.33;;;52.00;52.20;;;;;;5085502;28;20043;-76
2022/07/28 10:10:10;;;;;;;7.13;2.53;;;52.70;51.40;;;;;;5070141;28;20044;-76
2022/07/28 10:13:14;;;;;;;4.57;2.17;;;53.30;51.10;;;;;;5062736;28;20407;-77
2022/07/28 10:16:20;;;;;;;3.88;2.28;;;53.20;50.20;;;;;;5068131;28;20035;-77
2022/07/28 10:19:24;;;;;;;4.72;2.10;;;52.60;50.30;;;;;;5082334;28;20035;-75
2022/07/28 10:22:33;;;;;;;7.53;2.50;;;50.80;50.20;;;;;;5070359;28;20478;-76
2022/07/28 10:25:39;;;;;;;7.63;2.83;;;47.20;50.20;;;;;;5083789;28;20418;-77
2022/07/28 10:28:48;;;;;;;6.40;2.65;;;47.70;52.90;;;;;;5077449;28;20050;-76
2022/07/28 10:31:56;;;;;;;2.90;2.45;;;44.00;54.30;;;;;;5077313;28;20345;-76
2022/07/28 10:35:03;;;;;;;5.57;3.05;;;45.10;54.50;;;;;;5088142;28;20055;-76
2022/07/28 10:38:15;;;;;;;27.67;4.18;;;46.10;54.10;;;;;;5090684;28;20478;-77
2022/07/28 10:41:24;;;;;;;7.65;3.25;;;46.40;54.00;;;;;;5075327;28;20593;-75
2022/07/28 10:44:30;;;;;;;4.97;2.90;;;47.30;53.50;;;;;;5055469;28;20383;-76
2022/07/28 10:47:34;;;;;;;20.90;3.63;;;48.70;53.00;;;;;;5057448;28;20402;-77
2022/07/28 10:50:39;;;;;;;4.28;2.85;;;49.50;52.30;;;;;;5077185;28;20418;-76
2022/07/28 10:53:50;;;;;;;6.40;2.35;;;48.80;52.40;;;;;;5065125;28;20040;-75
2022/07/28 10:56:59;;;;;;;4.82;2.38;;;50.30;52.00;;;;;;5073084;28;20047;-76
2022/07/28 11:00:07;;;;;;;9.50;3.05;;;50.70;51.30;;;;;;5073164;28;20043;-74
2022/07/28 11:03:42;;;;;;;5.00;2.90;;;44.20;52.50;;;;;;5076873;28;20044;-74
2022/07/28 11:06:48;;;;;;;9.95;3.30;;;42.80;55.70;;;;;;5062841;28;20044;-76
2022/07/28 11:09:53;;;;;;;6.85;2.97;;;43.70;55.70;;;;;;5074551;28;20353;-76
2022/07/28 11:12:57;;;;;;;4.13;2.88;;;45.80;54.10;;;;;;5069211;28;20051;-76
2022/07/28 11:16:14;;;;;;;4.90;2.85;;;47.80;52.80;;;;;;5079791;28;20035;-72
2022/07/28 11:19:20;;;;;;;6.32;2.97;;;47.90;52.40;;;;;;5070942;28;20039;-75
2022/07/28 11:22:28;;;;;;;4.18;2.60;;;47.20;53.30;;;;;;5077961;28;20064;-76
2022/07/28 11:25:32;;;;;;;5.40;2.90;;;44.30;54.20;;;;;;5053045;28;20036;-74
2022/07/28 11:29:03;;;;;;;8.20;3.03;;;42.50;54.80;;;;;;5071723;28;20110;-76
2022/07/28 11:32:07;;;;;;;4.13;2.47;;;44.80;54.80;;;;;;5064980;28;20039;-76
2022/07/28 11:35:11;;;;;;;4.47;2.55;;;45.60;53.80;;;;;;5068243;28;20040;-77
2022/07/28 11:38:16;;;;;;;7.18;2.50;;;48.50;52.20;;;;;;5084392;28;20039;-76
2022/07/28 11:41:30;;;;;;;6.95;2.25;;;50.00;51.00;;;;;;5082694;28;20044;-75
2022/07/28 11:44:34;;;;;;;3.35;2.03;;;51.40;49.90;;;;;;5058522;28;20043;-76
2022/07/28 11:47:38;;;;;;;3.28;2.00;;;51.30;49.90;;;;;;5073109;28;20434;-77
2022/07/28 11:51:02;;;;;;;4.38;2.50;;;52.10;49.20;;;;;;5070042;28;20040;-75
2022/07/28 11:54:15;;;;;;;4.28;2.35;;;52.00;48.40;;;;;;5083746;28;20387;-76
2022/07/28 11:57:22;;;;;;;3.78;2.38;;;49.70;48.70;;;;;;5072068;28;20039;-76
2022/07/28 12:00:26;;;;;;;3.35;2.33;;;47.30;49.30;;;;;;5072326;28;20043;-75
2022/07/28 12:03:33;;;;;;;4.10;2.22;;;47.10;49.70;;;;;;5072389;28;20043;-74
2022/07/28 12:06:41;;;;;;;7.55;3.00;;;42.80;51.60;;;;;;5071520;28;20044;-74
2022/07/28 12:09:45;;;;;;;4.32;2.35;;;43.60;51.70;;;;;;5072438;28;20039;-76
2022/07/28 12:12:51;;;;;;;3.42;2.40;;;45.10;51.80;;;;;;5069997;28;20057;-76
2022/07/28 12:15:55;;;;;;;3.28;2.15;;;46.70;51.30;;;;;;5078626;28;20039;-76
2022/07/28 12:19:01;;;;;;;4.50;2.17;;;47.20;50.00;;;;;;5071856;28;20047;-75
2022/07/28 12:22:10;;;;;;;3.50;2.13;;;45.00;49.60;;;;;;5071699;28;20039;-76
2022/07/28 12:25:14;;;;;;;2.60;1.77;;;44.70;50.70;;;;;;5083748;28;20090;-76
2022/07/28 12:28:26;;;;;;;3.97;2.10;;;44.20;50.70;;;;;;5070762;28;20035;-76
2022/07/28 12:31:32;;;;;;;3.35;2.05;;;43.70;50.70;;;;;;5077374;28;20617;-75
2022/07/28 12:34:38;;;;;;;5.53;2.50;;;41.60;50.40;;;;;;5051978;28;20048;-75
2022/07/28 12:37:46;;;;;;;4.05;2.35;;;41.50;51.70;;;;;;5070341;28;20103;-76
2022/07/28 12:40:52;;;;;;;1.95;1.40;;;41.40;52.50;;;;;;5069037;28;20491;-76
2022/07/28 12:43:57;;;;;;;4.55;1.92;;;40.30;51.00;;;;;;5080854;28;20039;-72
2022/07/28 12:47:02;;;;;;;3.30;1.50;;;39.10;50.20;;;;;;5078199;28;20043;-75
2022/07/28 12:50:13;;;;;;;2.78;1.70;;;40.40;50.30;;;;;;5073475;28;20043;-75
2022/07/28 12:53:21;;;;;;;3.53;1.60;;;41.50;49.40;;;;;;5080660;28;20063;-77
2022/07/28 12:56:25;;;;;;;2.80;2.30;;;42.30;48.80;;;;;;5069606;28;20044;-77
2022/07/28 12:59:34;;;;;;;2.85;1.70;;;42.70;51.20;;;;;;5067328;28;20047;-74
2022/07/28 13:02:39;;;;;;;2.60;1.70;;;41.20;49.70;;;;;;5070431;28;20036;-76
2022/07/28 13:06:01;;;;;;;4.25;1.60;;;41.00;49.40;;;;;;5066104;28;20383;-73
2022/07/28 13:09:05;;;;;;;5.20;1.65;;;41.10;49.40;;;;;;5067415;28;20055;-75
2022/07/28 13:12:24;;;;;;;3.55;1.83;;;38.40;49.20;;;;;;5069935;28;20498;-76
2022/07/28 13:15:28;;;;;;;3.28;1.33;;;39.40;49.40;;;;;;5066144;28;20044;-74
2022/07/28 13:18:44;;;;;;;2.40;1.48;;;39.60;48.60;;;;;;5056313;28;20032;-73
2022/07/28 13:21:50;;;;;;;2.72;1.83;;;39.30;48.80;;;;;;5063077;28;20047;-73
2022/07/28 13:24:55;;;;;;;2.20;1.60;;;39.60;48.90;;;;;;5065922;28;20065;-75
2022/07/28 13:27:59;;;;;;;2.38;1.60;;;40.30;48.20;;;;;;5067425;28;20052;-76
2022/07/28 13:31:03;;;;;;;3.10;1.60;;;40.30;48.10;;;;;;5064683;28;20509;-76
2022/07/28 13:34:08;;;;;;;2.17;1.58;;;40.40;48.20;;;;;;5065643;28;20043;-73
2022/07/28 13:37:13;;;;;;;2.45;1.50;;;40.90;48.00;;;;;;5067325;28;20238;-76
2022/07/28 13:40:17;;;;;;;2.38;1.40;;;41.40;46.30;;;;;;5058874;28;20040;-75
2022/07/28 13:43:22;;;;;;;4.70;1.70;;;42.00;46.80;;;;;;5063479;28;20036;-74
2022/07/28 13:46:27;;;;;;;3.05;1.45;;;42.00;46.30;;;;;;5068760;28;20052;-76
2022/07/28 13:49:33;;;;;;;2.10;1.40;;;41.20;45.70;;;;;;5072435;28;20051;-74
2022/07/28 13:52:38;;;;;;;1.73;1.20;;;41.20;46.40;;;;;;5062594;28;20050;-76
2022/07/28 13:55:42;;;;;;;4.75;1.60;;;41.30;46.10;;;;;;5058413;28;20056;-75
2022/07/28 13:58:46;;;;;;;3.38;1.58;;;41.70;46.30;;;;;;5065524;28;20036;-76
2022/07/28 14:01:50;;;;;;;4.18;1.40;;;41.90;45.70;;;;;;5061083;28;20047;-75
2022/07/28 14:04:54;;;;;;;2.67;1.65;;;42.00;46.30;;;;;;5059907;28;20402;-76
2022/07/28 14:07:58;;;;;;;3.05;1.60;;;41.90;46.20;;;;;;5064468;28;20158;-76
2022/07/28 14:11:02;;;;;;;3.58;1.38;;;41.90;46.80;;;;;;5063528;28;20387;-75
2022/07/28 14:14:07;;;;;;;10.30;2.22;;;42.10;46.10;;;;;;5065834;28;20039;-76
2022/07/28 14:17:10;;;;;;;2.33;1.27;;;42.10;45.60;;;;;;5060203;28;20044;-75
2022/07/28 14:20:15;;;;;;;2.08;1.60;;;41.70;46.00;;;;;;5061293;28;20511;-75
2022/07/28 14:23:19;;;;;;;3.85;1.50;;;40.70;46.30;;;;;;5063710;28;20043;-77
2022/07/28 14:26:23;;;;;;;2.50;1.50;;;39.90;47.10;;;;;;5060616;28;20044;-75
2022/07/28 14:29:27;;;;;;;2.35;1.55;;;39.20;47.20;;;;;;5060016;28;20053;-75
2022/07/28 14:32:32;;;;;;;4.72;1.60;;;40.00;47.50;;;;;;5056259;28;20055;-76
2022/07/28 14:35:36;;;;;;;5.30;1.67;;;40.50;47.90;;;;;;5058293;28;20044;-74
2022/07/28 14:38:40;;;;;;;3.60;2.08;;;40.90;47.20;;;;;;5061373;28;20044;-77
2022/07/28 14:41:44;;;;;;;3.60;1.60;;;41.10;46.50;;;;;;5060436;28;20387;-76
2022/07/28 14:44:48;;;;;;;3.05;1.70;;;40.50;47.40;;;;;;5066950;28;20055;-76
2022/07/28 14:47:53;;;;;;;2.15;1.70;;;39.90;47.80;;;;;;5058514;28;20035;-76
2022/07/28 14:51:00;;;;;;;11.70;1.95;;;39.50;48.00;;;;;;5064761;28;20035;-76
2022/07/28 14:54:04;;;;;;;5.35;1.85;;;39.40;48.40;;;;;;5049247;28;20056;-76
2022/07/28 14:57:07;;;;;;;7.70;2.00;;;39.30;48.30;;;;;;5056906;28;20502;-75
2022/07/28 15:00:15;;;;;;;4.20;1.63;;;39.50;48.30;;;;;;5061206;28;20051;-76
2022/07/28 15:03:19;;;;;;;7.00;1.83;;;39.40;48.90;;;;;;5059623;28;20052;-75
2022/07/28 15:06:23;;;;;;;4.30;2.53;;;39.10;50.40;;;;;;5062280;28;20065;-75
2022/07/28 15:09:27;;;;;;;9.10;2.47;;;38.60;53.20;;;;;;5069830;28;20051;-76
2022/07/28 15:12:30;;;;;;;4.93;2.40;;;38.10;54.80;;;;;;5049698;28;20040;-76
2022/07/28 15:15:34;;;;;;;3.17;2.63;;;37.70;55.20;;;;;;5037021;28;20040;-76
2022/07/28 15:18:38;;;;;;;2.92;2.60;;;37.50;55.10;;;;;;5049599;28;20391;-75
2022/07/28 15:21:44;;;;;;;7.35;2.92;;;37.30;56.20;;;;;;5059674;28;20055;-76
2022/07/28 15:24:48;;;;;;;6.22;2.63;;;37.00;55.90;;;;;;5053444;28;20053;-75
2022/07/28 15:27:52;;;;;;;4.40;2.95;;;37.00;56.50;;;;;;5058952;28;20044;-76
2022/07/28 15:30:55;;;;;;;3.97;2.65;;;36.90;56.60;;;;;;5068459;28;20051;-75
2022/07/28 15:34:00;;;;;;;6.95;2.70;;;36.80;56.70;;;;;;5067817;28;20597;-75
2022/07/28 15:37:04;;;;;;;4.68;2.90;;;36.80;57.30;;;;;;5068828;28;20388;-75
2022/07/28 15:40:09;;;;;;;4.38;3.08;;;36.60;57.80;;;;;;5068165;28;20051;-75
2022/07/28 15:43:13;;;;;;;5.63;3.10;;;36.50;58.30;;;;;;5065620;28;20403;-76
2022/07/28 15:46:18;;;;;;;4.78;2.80;;;36.50;58.70;;;;;;5060272;28;20391;-75
2022/07/28 15:49:22;;;;;;;14.27;3.22;;;36.40;59.20;;;;;;5071680;28;20051;-76
2022/07/28 15:52:26;;;;;;;4.72;3.00;;;36.20;60.60;;;;;;5060561;28;20047;-75
2022/07/28 15:55:31;;;;;;;6.20;3.35;;;36.10;60.90;;;;;;5089582;28;20043;-75
2022/07/28 15:58:35;;;;;;;11.05;4.60;;;35.70;62.70;;;;;;5073213;28;20047;-75
2022/07/28 16:01:39;;;;;;;6.22;3.80;;;35.50;63.90;;;;;;5072527;28;20043;-72
2022/07/28 16:04:44;;;;;;;9.75;3.75;;;35.20;64.50;;;;;;5064129;28;20047;-73